Delta Virtual Airport Information Service

Prague Vaclav Havel Airport

ICAO: LKPR Country: Czech Republic
Latitude: 50.1008 Longitude: 14.26
Latest Arrival : BAW854 (1) (EGLL-LKPR) Latest Departure : UAE140 (LKPR-OMDB)


WX CaptureLIVE
Data provided by noaa.gov | Fetched at 00:32:34

METAR : LKPR 250500Z 29009KT 9999 FEW028 SCT045 11/07 Q1027 NOSIG

TAF :


Runway Data for LKPR
Data provided by openaviationdata.com

Runway ID Mag Var Hdg Length Elevation Surface ILS Freq ILS Id ILS Slope
6 25 39° 12165 ft 1247 ft Asphalt 111.15 PH 3
12 25 101° 10642 ft 1247 ft Asphalt 109.95 PA 3
24 25 219° 12165 ft 1247 ft Asphalt 109.1 PR 3
30 25 281° 10642 ft 1247 ft Asphalt 109.5 PG 3

Prague Vaclav Havel Airport, Czech Republic
Use only for reference purposes



Not for navigational purposes.